sensor_id;sensor_type;location;lat;lon;timestamp;P1;P2;P0
78316;PMS7003;67572;50.930;18.276;2023-03-02T00:01:59;29.33;23.33;16.00
78316;PMS7003;67572;50.930;18.276;2023-03-02T00:05:08;24.33;19.00;13.67
78316;PMS7003;67572;50.930;18.276;2023-03-02T00:08:16;25.00;18.00;7.00
78316;PMS7003;67572;50.930;18.276;2023-03-02T00:11:24;25.67;22.33;15.67
78316;PMS7003;67572;50.930;18.276;2023-03-02T00:14:45;30.67;25.67;17.33
78316;PMS7003;67572;50.930;18.276;2023-03-02T00:17:53;24.67;24.67;17.33
78316;PMS7003;67572;50.930;18.276;2023-03-02T00:20:59;32.33;29.33;19.67
78316;PMS7003;67572;50.930;18.276;2023-03-02T00:24:06;21.67;20.33;13.00
78316;PMS7003;67572;50.930;18.276;2023-03-02T00:27:13;22.00;22.00;14.33
78316;PMS7003;67572;50.930;18.276;2023-03-02T00:30:21;28.00;24.00;15.00
78316;PMS7003;67572;50.930;18.276;2023-03-02T00:33:29;25.67;22.00;12.33
78316;PMS7003;67572;50.930;18.276;2023-03-02T00:36:36;31.67;25.67;15.33
78316;PMS7003;67572;50.930;18.276;2023-03-02T00:39:42;33.33;27.33;15.33
78316;PMS7003;67572;50.930;18.276;2023-03-02T00:42:50;27.00;24.00;16.00
78316;PMS7003;67572;50.930;18.276;2023-03-02T00:46:06;29.33;26.33;15.67
78316;PMS7003;67572;50.930;18.276;2023-03-02T00:49:15;25.00;21.17;15.17
78316;PMS7003;67572;50.930;18.276;2023-03-02T00:52:22;30.33;24.33;13.00
78316;PMS7003;67572;50.930;18.276;2023-03-02T00:55:28;26.67;24.00;17.33
78316;PMS7003;67572;50.930;18.276;2023-03-02T00:58:33;24.00;24.00;16.00
78316;PMS7003;67572;50.930;18.276;2023-03-02T01:01:42;25.00;25.00;16.00
78316;PMS7003;67572;50.930;18.276;2023-03-02T01:05:02;26.67;25.33;17.00
78316;PMS7003;67572;50.930;18.276;2023-03-02T01:08:09;33.50;24.00;14.00
78316;PMS7003;67572;50.930;18.276;2023-03-02T01:11:19;41.00;36.75;22.00
78316;PMS7003;67572;50.930;18.276;2023-03-02T01:14:25;34.00;31.00;22.00
78316;PMS7003;67572;50.930;18.276;2023-03-02T01:17:35;43.20;38.00;27.00
78316;PMS7003;67572;50.930;18.276;2023-03-02T01:20:45;40.00;36.50;26.00
78316;PMS7003;67572;50.930;18.276;2023-03-02T01:23:52;41.20;35.20;23.40
78316;PMS7003;67572;50.930;18.276;2023-03-02T01:26:59;32.00;32.00;21.50
78316;PMS7003;67572;50.930;18.276;2023-03-02T01:30:05;31.67;24.33;12.00
78316;PMS7003;67572;50.930;18.276;2023-03-02T01:33:12;27.50;23.00;12.00
78316;PMS7003;67572;50.930;18.276;2023-03-02T01:36:21;42.00;37.00;24.00
78316;PMS7003;67572;50.930;18.276;2023-03-02T01:39:29;46.40;35.40;25.40
78316;PMS7003;67572;50.930;18.276;2023-03-02T01:42:37;34.00;31.00;17.00
78316;PMS7003;67572;50.930;18.276;2023-03-02T01:45:52;30.33;26.67;16.33
78316;PMS7003;67572;50.930;18.276;2023-03-02T01:49:22;32.00;22.00;18.00
78316;PMS7003;67572;50.930;18.276;2023-03-02T01:52:35;51.33;43.00;25.00
78316;PMS7003;67572;50.930;18.276;2023-03-02T01:55:42;40.00;36.00;22.00
78316;PMS7003;67572;50.930;18.276;2023-03-02T01:58:50;48.00;40.00;21.00
78316;PMS7003;67572;50.930;18.276;2023-03-02T02:01:59;44.50;37.00;24.00
78316;PMS7003;67572;50.930;18.276;2023-03-02T02:05:08;33.00;27.50;18.00
78316;PMS7003;67572;50.930;18.276;2023-03-02T02:08:19;34.50;32.50;21.50
78316;PMS7003;67572;50.930;18.276;2023-03-02T02:11:26;36.00;31.00;22.00
78316;PMS7003;67572;50.930;18.276;2023-03-02T02:14:32;34.67;34.67;20.33
78316;PMS7003;67572;50.930;18.276;2023-03-02T02:17:38;55.67;44.33;28.67
78316;PMS7003;67572;50.930;18.276;2023-03-02T02:20:49;47.67;38.00;24.00
78316;PMS7003;67572;50.930;18.276;2023-03-02T02:24:04;45.33;41.33;25.00
78316;PMS7003;67572;50.930;18.276;2023-03-02T02:27:17;52.33;40.67;24.33
78316;PMS7003;67572;50.930;18.276;2023-03-02T02:30:24;45.40;38.60;26.80
78316;PMS7003;67572;50.930;18.276;2023-03-02T02:33:37;41.67;37.00;25.33
78316;PMS7003;67572;50.930;18.276;2023-03-02T02:36:49;57.33;48.00;25.67
78316;PMS7003;67572;50.930;18.276;2023-03-02T02:40:01;48.00;45.00;28.67
78316;PMS7003;67572;50.930;18.276;2023-03-02T02:43:14;51.67;42.67;25.00
78316;PMS7003;67572;50.930;18.276;2023-03-02T02:46:22;39.33;31.00;19.67
78316;PMS7003;67572;50.930;18.276;2023-03-02T02:49:30;48.33;38.00;22.17
78316;PMS7003;67572;50.930;18.276;2023-03-02T02:52:40;39.00;36.00;18.00
78316;PMS7003;67572;50.930;18.276;2023-03-02T02:55:48;30.50;27.50;18.00
78316;PMS7003;67572;50.930;18.276;2023-03-02T02:59:10;26.00;26.00;21.50
78316;PMS7003;67572;50.930;18.276;2023-03-02T03:02:23;37.00;36.67;20.33
78316;PMS7003;67572;50.930;18.276;2023-03-02T03:05:33;43.00;32.00;21.00
78316;PMS7003;67572;50.930;18.276;2023-03-02T03:12:12;47.33;42.33;26.33
78316;PMS7003;67572;50.930;18.276;2023-03-02T03:15:21;33.67;29.33;15.00
78316;PMS7003;67572;50.930;18.276;2023-03-02T03:18:28;41.33;33.33;21.33
78316;PMS7003;67572;50.930;18.276;2023-03-02T03:21:35;44.67;42.00;25.33
78316;PMS7003;67572;50.930;18.276;2023-03-02T03:24:43;42.50;37.00;22.00
78316;PMS7003;67572;50.930;18.276;2023-03-02T03:27:51;36.00;32.60;23.40
78316;PMS7003;67572;50.930;18.276;2023-03-02T03:30:59;41.00;35.00;26.00
78316;PMS7003;67572;50.930;18.276;2023-03-02T03:34:04;46.33;39.67;22.67
78316;PMS7003;67572;50.930;18.276;2023-03-02T03:37:13;47.67;32.33;21.00
78316;PMS7003;67572;50.930;18.276;2023-03-02T03:40:28;48.00;42.00;27.33
78316;PMS7003;67572;50.930;18.276;2023-03-02T03:43:37;44.33;40.67;22.67
78316;PMS7003;67572;50.930;18.276;2023-03-02T03:46:43;42.00;38.00;25.00
78316;PMS7003;67572;50.930;18.276;2023-03-02T03:49:48;43.00;33.50;23.00
78316;PMS7003;67572;50.930;18.276;2023-03-02T03:52:56;44.00;35.80;20.60
78316;PMS7003;67572;50.930;18.276;2023-03-02T03:56:05;46.00;36.50;23.00
78316;PMS7003;67572;50.930;18.276;2023-03-02T03:59:12;40.00;37.00;22.00
78316;PMS7003;67572;50.930;18.276;2023-03-02T04:02:29;13.83;8.50;0.00
78316;PMS7003;67572;50.930;18.276;2023-03-02T04:05:35;35.33;34.00;22.67
78316;PMS7003;67572;50.930;18.276;2023-03-02T04:08:40;41.00;35.50;25.00
78316;PMS7003;67572;50.930;18.276;2023-03-02T04:11:48;45.00;36.50;20.67
78316;PMS7003;67572;50.930;18.276;2023-03-02T04:14:57;38.67;36.33;21.67
78316;PMS7003;67572;50.930;18.276;2023-03-02T04:18:06;42.20;42.20;25.00
78316;PMS7003;67572;50.930;18.276;2023-03-02T04:21:21;34.00;31.00;21.00
78316;PMS7003;67572;50.930;18.276;2023-03-02T04:24:27;48.00;43.00;25.00
78316;PMS7003;67572;50.930;18.276;2023-03-02T04:27:37;43.20;35.20;18.60
78316;PMS7003;67572;50.930;18.276;2023-03-02T04:30:42;39.67;37.00;26.33
78316;PMS7003;67572;50.930;18.276;2023-03-02T04:33:48;45.60;36.80;22.00
78316;PMS7003;67572;50.930;18.276;2023-03-02T04:36:53;43.00;34.00;25.00
78316;PMS7003;67572;50.930;18.276;2023-03-02T04:40:00;32.00;28.67;21.00
78316;PMS7003;67572;50.930;18.276;2023-03-02T04:43:07;45.00;42.00;21.50
78316;PMS7003;67572;50.930;18.276;2023-03-02T04:46:14;41.00;36.67;22.00
78316;PMS7003;67572;50.930;18.276;2023-03-02T04:49:24;40.80;37.60;23.60
78316;PMS7003;67572;50.930;18.276;2023-03-02T04:52:29;39.50;38.00;22.00
78316;PMS7003;67572;50.930;18.276;2023-03-02T04:55:33;37.00;34.00;24.00
78316;PMS7003;67572;50.930;18.276;2023-03-02T04:58:38;35.33;28.67;20.67
78316;PMS7003;67572;50.930;18.276;2023-03-02T05:01:44;45.67;37.00;21.00
78316;PMS7003;67572;50.930;18.276;2023-03-02T05:04:52;42.00;32.00;22.00
78316;PMS7003;67572;50.930;18.276;2023-03-02T05:07:56;42.50;38.50;25.00
78316;PMS7003;67572;50.930;18.276;2023-03-02T05:11:04;46.75;36.50;23.75
78316;PMS7003;67572;50.930;18.276;2023-03-02T05:14:12;40.00;36.00;22.00
78316;PMS7003;67572;50.930;18.276;2023-03-02T05:17:18;52.50;45.00;25.75
78316;PMS7003;67572;50.930;18.276;2023-03-02T05:20:24;45.50;38.50;24.50
78316;PMS7003;67572;50.930;18.276;2023-03-02T05:23:34;42.25;33.50;20.50
78316;PMS7003;67572;50.930;18.276;2023-03-02T05:26:43;38.33;30.67;18.00
78316;PMS7003;67572;50.930;18.276;2023-03-02T05:29:48;37.00;36.00;24.00
78316;PMS7003;67572;50.930;18.276;2023-03-02T05:32:52;42.00;35.00;21.50
78316;PMS7003;67572;50.930;18.276;2023-03-02T05:36:00;37.33;34.00;19.00
78316;PMS7003;67572;50.930;18.276;2023-03-02T05:39:07;38.33;36.33;21.67
78316;PMS7003;67572;50.930;18.276;2023-03-02T05:42:12;40.67;31.67;17.33
78316;PMS7003;67572;50.930;18.276;2023-03-02T05:45:22;33.67;27.33;18.00
78316;PMS7003;67572;50.930;18.276;2023-03-02T05:48:29;36.00;32.33;22.33
78316;PMS7003;67572;50.930;18.276;2023-03-02T05:51:38;42.00;36.00;22.00
78316;PMS7003;67572;50.930;18.276;2023-03-02T05:54:46;39.00;36.00;18.67
78316;PMS7003;67572;50.930;18.276;2023-03-02T05:57:51;41.33;34.67;21.00
78316;PMS7003;67572;50.930;18.276;2023-03-02T06:00:57;37.33;31.00;21.00
78316;PMS7003;67572;50.930;18.276;2023-03-02T06:04:01;39.50;38.50;22.00
78316;PMS7003;67572;50.930;18.276;2023-03-02T06:07:09;40.67;37.00;21.67
78316;PMS7003;67572;50.930;18.276;2023-03-02T06:10:14;37.33;35.33;21.33
78316;PMS7003;67572;50.930;18.276;2023-03-02T06:13:24;38.00;36.00;22.00
78316;PMS7003;67572;50.930;18.276;2023-03-02T06:16:30;40.75;33.75;21.50
78316;PMS7003;67572;50.930;18.276;2023-03-02T06:19:36;46.00;36.33;22.00
78316;PMS7003;67572;50.930;18.276;2023-03-02T06:22:41;43.00;37.00;23.00
78316;PMS7003;67572;50.930;18.276;2023-03-02T06:25:49;36.00;33.25;17.50
78316;PMS7003;67572;50.930;18.276;2023-03-02T06:28:54;30.00;26.33;21.00
78316;PMS7003;67572;50.930;18.276;2023-03-02T06:31:58;39.00;35.00;19.00
78316;PMS7003;67572;50.930;18.276;2023-03-02T06:35:03;41.50;36.50;23.00
78316;PMS7003;67572;50.930;18.276;2023-03-02T06:38:09;41.00;37.50;23.00
78316;PMS7003;67572;50.930;18.276;2023-03-02T06:41:13;44.00;38.00;21.00
78316;PMS7003;67572;50.930;18.276;2023-03-02T06:44:18;43.60;40.80;26.80
78316;PMS7003;67572;50.930;18.276;2023-03-02T06:47:23;46.33;40.33;24.33
78316;PMS7003;67572;50.930;18.276;2023-03-02T06:50:29;67.67;49.33;24.67
78316;PMS7003;67572;50.930;18.276;2023-03-02T06:53:37;61.00;49.00;29.33
78316;PMS7003;67572;50.930;18.276;2023-03-02T06:56:42;58.00;45.00;24.67
78316;PMS7003;67572;50.930;18.276;2023-03-02T06:59:48;50.67;45.33;29.33
78316;PMS7003;67572;50.930;18.276;2023-03-02T07:02:53;66.67;52.00;31.67
78316;PMS7003;67572;50.930;18.276;2023-03-02T07:05:59;64.60;50.40;29.20
78316;PMS7003;67572;50.930;18.276;2023-03-02T07:09:06;67.00;52.67;33.33
78316;PMS7003;67572;50.930;18.276;2023-03-02T07:12:10;71.20;56.20;34.20
78316;PMS7003;67572;50.930;18.276;2023-03-02T07:15:15;65.00;54.00;36.00
78316;PMS7003;67572;50.930;18.276;2023-03-02T07:18:20;71.00;58.50;36.00
78316;PMS7003;67572;50.930;18.276;2023-03-02T07:21:25;79.00;66.00;42.00
78316;PMS7003;67572;50.930;18.276;2023-03-02T07:24:32;83.67;65.33;40.00
78316;PMS7003;67572;50.930;18.276;2023-03-02T07:27:38;75.00;60.00;37.00
78316;PMS7003;67572;50.930;18.276;2023-03-02T07:30:44;74.67;61.00;39.00
78316;PMS7003;67572;50.930;18.276;2023-03-02T07:33:50;78.00;59.67;36.33
78316;PMS7003;67572;50.930;18.276;2023-03-02T07:36:56;78.00;60.33;36.00
78316;PMS7003;67572;50.930;18.276;2023-03-02T07:40:02;67.00;53.50;34.00
78316;PMS7003;67572;50.930;18.276;2023-03-02T07:43:09;75.33;59.67;38.00
78316;PMS7003;67572;50.930;18.276;2023-03-02T07:46:14;74.00;60.50;37.00
78316;PMS7003;67572;50.930;18.276;2023-03-02T07:49:19;77.00;61.00;36.67
78316;PMS7003;67572;50.930;18.276;2023-03-02T07:52:29;76.33;57.67;35.33
78316;PMS7003;67572;50.930;18.276;2023-03-02T07:55:40;71.00;58.67;36.00
78316;PMS7003;67572;50.930;18.276;2023-03-02T07:58:47;73.67;60.33;36.00
78316;PMS7003;67572;50.930;18.276;2023-03-02T08:02:15;59.50;52.00;32.00
78316;PMS7003;67572;50.930;18.276;2023-03-02T08:05:23;51.67;47.00;30.33
78316;PMS7003;67572;50.930;18.276;2023-03-02T08:08:29;67.67;53.33;33.67
78316;PMS7003;67572;50.930;18.276;2023-03-02T08:11:42;64.00;51.33;33.00
78316;PMS7003;67572;50.930;18.276;2023-03-02T08:14:48;63.00;49.00;33.67
78316;PMS7003;67572;50.930;18.276;2023-03-02T08:17:54;73.00;57.00;37.33
78316;PMS7003;67572;50.930;18.276;2023-03-02T08:20:58;41.00;37.00;12.50
78316;PMS7003;67572;50.930;18.276;2023-03-02T08:24:04;84.33;66.00;40.67
78316;PMS7003;67572;50.930;18.276;2023-03-02T08:27:12;77.00;62.33;38.33
78316;PMS7003;67572;50.930;18.276;2023-03-02T08:30:19;83.00;63.00;37.00
78316;PMS7003;67572;50.930;18.276;2023-03-02T08:33:25;74.67;59.33;35.33
78316;PMS7003;67572;50.930;18.276;2023-03-02T08:36:32;72.00;58.33;36.00
78316;PMS7003;67572;50.930;18.276;2023-03-02T08:39:38;55.67;48.00;28.00
78316;PMS7003;67572;50.930;18.276;2023-03-02T08:42:45;66.67;53.33;33.00
78316;PMS7003;67572;50.930;18.276;2023-03-02T08:45:53;32.00;20.83;8.83
78316;PMS7003;67572;50.930;18.276;2023-03-02T08:49:00;77.67;58.67;37.33
78316;PMS7003;67572;50.930;18.276;2023-03-02T08:52:16;53.00;46.00;31.00
78316;PMS7003;67572;50.930;18.276;2023-03-02T08:55:21;43.67;39.33;27.00
78316;PMS7003;67572;50.930;18.276;2023-03-02T08:58:28;35.00;33.00;24.00
78316;PMS7003;67572;50.930;18.276;2023-03-02T09:01:35;48.33;41.33;25.00
78316;PMS7003;67572;50.930;18.276;2023-03-02T09:04:41;43.67;40.67;24.33
78316;PMS7003;67572;50.930;18.276;2023-03-02T09:07:46;39.67;28.00;19.00
78316;PMS7003;67572;50.930;18.276;2023-03-02T09:10:51;60.00;45.00;26.33
78316;PMS7003;67572;50.930;18.276;2023-03-02T09:13:58;63.67;52.67;31.00
78316;PMS7003;67572;50.930;18.276;2023-03-02T09:17:04;53.33;47.33;28.67
78316;PMS7003;67572;50.930;18.276;2023-03-02T09:20:09;50.33;41.33;30.00
78316;PMS7003;67572;50.930;18.276;2023-03-02T09:23:15;40.00;35.67;25.33
78316;PMS7003;67572;50.930;18.276;2023-03-02T09:26:22;42.67;37.67;27.33
78316;PMS7003;67572;50.930;18.276;2023-03-02T09:29:29;42.33;38.33;23.67
78316;PMS7003;67572;50.930;18.276;2023-03-02T09:32:34;34.00;27.00;16.00
78316;PMS7003;67572;50.930;18.276;2023-03-02T09:35:39;39.00;35.33;24.00
78316;PMS7003;67572;50.930;18.276;2023-03-02T09:38:44;34.00;30.50;18.00
78316;PMS7003;67572;50.930;18.276;2023-03-02T09:45:21;37.67;36.33;22.00
78316;PMS7003;67572;50.930;18.276;2023-03-02T09:48:37;40.33;36.67;26.33
78316;PMS7003;67572;50.930;18.276;2023-03-02T09:51:54;46.33;43.67;27.67
78316;PMS7003;67572;50.930;18.276;2023-03-02T09:55:11;36.33;33.67;26.00
78316;PMS7003;67572;50.930;18.276;2023-03-02T09:58:20;48.67;45.00;28.67
78316;PMS7003;67572;50.930;18.276;2023-03-02T10:01:33;42.00;37.67;22.00
78316;PMS7003;67572;50.930;18.276;2023-03-02T10:04:43;37.67;36.33;25.00
78316;PMS7003;67572;50.930;18.276;2023-03-02T10:07:52;40.67;37.67;26.67
78316;PMS7003;67572;50.930;18.276;2023-03-02T10:11:02;50.00;40.50;24.50
78316;PMS7003;67572;50.930;18.276;2023-03-02T10:14:16;37.00;34.00;24.67
78316;PMS7003;67572;50.930;18.276;2023-03-02T10:17:37;48.00;41.33;25.67
78316;PMS7003;67572;50.930;18.276;2023-03-02T10:20:48;43.00;38.33;22.00
78316;PMS7003;67572;50.930;18.276;2023-03-02T10:23:58;37.67;36.00;25.67
78316;PMS7003;67572;50.930;18.276;2023-03-02T10:27:10;48.33;39.33;23.00
78316;PMS7003;67572;50.930;18.276;2023-03-02T10:30:20;47.33;43.67;27.33
78316;PMS7003;67572;50.930;18.276;2023-03-02T10:33:31;46.00;43.00;28.50
78316;PMS7003;67572;50.930;18.276;2023-03-02T10:36:39;51.00;42.67;26.33
78316;PMS7003;67572;50.930;18.276;2023-03-02T10:39:46;39.67;38.33;27.67
78316;PMS7003;67572;50.930;18.276;2023-03-02T10:42:52;37.00;32.67;20.33
78316;PMS7003;67572;50.930;18.276;2023-03-02T10:46:00;46.67;40.33;24.33
78316;PMS7003;67572;50.930;18.276;2023-03-02T10:49:23;44.33;40.00;28.00
78316;PMS7003;67572;50.930;18.276;2023-03-02T10:52:32;36.67;29.33;20.33
78316;PMS7003;67572;50.930;18.276;2023-03-02T10:55:42;49.25;43.75;27.50
78316;PMS7003;67572;50.930;18.276;2023-03-02T10:58:50;49.75;42.25;26.50
78316;PMS7003;67572;50.930;18.276;2023-03-02T11:01:58;39.67;35.33;24.00
78316;PMS7003;67572;50.930;18.276;2023-03-02T11:05:19;52.33;48.00;31.00
78316;PMS7003;67572;50.930;18.276;2023-03-02T11:08:30;49.67;38.33;24.67
78316;PMS7003;67572;50.930;18.276;2023-03-02T11:11:35;51.75;45.00;30.00
78316;PMS7003;67572;50.930;18.276;2023-03-02T11:14:41;45.33;40.33;25.00
78316;PMS7003;67572;50.930;18.276;2023-03-02T11:17:47;54.25;47.00;30.00
78316;PMS7003;67572;50.930;18.276;2023-03-02T11:20:58;42.67;34.00;24.00
78316;PMS7003;67572;50.930;18.276;2023-03-02T11:24:09;57.00;47.75;30.75
78316;PMS7003;67572;50.930;18.276;2023-03-02T11:27:19;49.50;43.00;29.25
78316;PMS7003;67572;50.930;18.276;2023-03-02T11:30:27;53.67;47.67;30.00
78316;PMS7003;67572;50.930;18.276;2023-03-02T11:33:41;54.00;48.00;31.00
78316;PMS7003;67572;50.930;18.276;2023-03-02T11:36:56;45.67;43.67;29.33
78316;PMS7003;67572;50.930;18.276;2023-03-02T11:40:16;41.33;39.67;27.67
78316;PMS7003;67572;50.930;18.276;2023-03-02T11:43:26;39.00;32.33;24.00
78316;PMS7003;67572;50.930;18.276;2023-03-02T11:46:31;36.00;35.33;26.33
78316;PMS7003;67572;50.930;18.276;2023-03-02T11:49:39;43.00;37.00;24.33
78316;PMS7003;67572;50.930;18.276;2023-03-02T11:52:48;33.00;33.00;24.00
78316;PMS7003;67572;50.930;18.276;2023-03-02T11:55:58;45.00;37.67;24.67
78316;PMS7003;67572;50.930;18.276;2023-03-02T11:59:03;30.00;24.00;18.00
78316;PMS7003;67572;50.930;18.276;2023-03-02T12:02:18;46.67;39.67;30.00
78316;PMS7003;67572;50.930;18.276;2023-03-02T12:05:26;36.75;30.25;21.50
78316;PMS7003;67572;50.930;18.276;2023-03-02T12:08:36;43.00;39.33;30.00
78316;PMS7003;67572;50.930;18.276;2023-03-02T12:11:44;47.33;38.67;27.00
78316;PMS7003;67572;50.930;18.276;2023-03-02T12:14:50;45.33;42.00;26.33
78316;PMS7003;67572;50.930;18.276;2023-03-02T12:17:55;38.00;36.33;22.67
78316;PMS7003;67572;50.930;18.276;2023-03-02T12:21:00;41.67;36.33;21.67
78316;PMS7003;67572;50.930;18.276;2023-03-02T12:24:22;44.33;38.33;24.33
78316;PMS7003;67572;50.930;18.276;2023-03-02T12:27:33;49.33;46.00;30.00
78316;PMS7003;67572;50.930;18.276;2023-03-02T12:30:40;44.00;39.33;24.67
78316;PMS7003;67572;50.930;18.276;2023-03-02T12:33:47;40.33;35.33;27.33
78316;PMS7003;67572;50.930;18.276;2023-03-02T12:36:54;54.75;38.25;25.00
78316;PMS7003;67572;50.930;18.276;2023-03-02T12:40:24;39.00;39.00;27.33
78316;PMS7003;67572;50.930;18.276;2023-03-02T12:43:41;49.00;44.33;29.00
78316;PMS7003;67572;50.930;18.276;2023-03-02T12:46:51;42.25;40.25;25.00
78316;PMS7003;67572;50.930;18.276;2023-03-02T12:49:59;45.67;42.33;25.67
78316;PMS7003;67572;50.930;18.276;2023-03-02T12:53:14;37.33;35.33;24.67
78316;PMS7003;67572;50.930;18.276;2023-03-02T12:56:22;51.00;44.33;31.67
78316;PMS7003;67572;50.930;18.276;2023-03-02T12:59:29;42.75;40.00;24.75
78316;PMS7003;67572;50.930;18.276;2023-03-02T13:02:35;33.33;33.33;23.33
78316;PMS7003;67572;50.930;18.276;2023-03-02T13:05:48;40.00;37.00;24.00
78316;PMS7003;67572;50.930;18.276;2023-03-02T13:08:55;28.67;28.67;21.00
78316;PMS7003;67572;50.930;18.276;2023-03-02T13:12:04;37.75;34.75;25.50
78316;PMS7003;67572;50.930;18.276;2023-03-02T13:15:17;44.33;40.67;27.00
78316;PMS7003;67572;50.930;18.276;2023-03-02T13:18:23;50.00;38.33;26.00
78316;PMS7003;67572;50.930;18.276;2023-03-02T13:21:34;61.75;50.25;33.00
78316;PMS7003;67572;50.930;18.276;2023-03-02T13:24:45;34.00;30.33;21.00
78316;PMS7003;67572;50.930;18.276;2023-03-02T13:27:56;35.67;35.67;24.67
78316;PMS7003;67572;50.930;18.276;2023-03-02T13:31:16;34.33;31.67;22.00
78316;PMS7003;67572;50.930;18.276;2023-03-02T13:34:24;34.33;33.33;24.67
78316;PMS7003;67572;50.930;18.276;2023-03-02T13:37:33;38.50;35.50;22.00
78316;PMS7003;67572;50.930;18.276;2023-03-02T13:40:43;34.67;33.00;21.00
78316;PMS7003;67572;50.930;18.276;2023-03-02T13:43:51;48.33;42.33;27.67
78316;PMS7003;67572;50.930;18.276;2023-03-02T13:46:57;38.67;31.00;21.00
78316;PMS7003;67572;50.930;18.276;2023-03-02T13:50:06;47.25;42.50;29.00
78316;PMS7003;67572;50.930;18.276;2023-03-02T13:53:12;39.00;36.67;21.33
78316;PMS7003;67572;50.930;18.276;2023-03-02T13:56:17;73.50;59.75;37.00
78316;PMS7003;67572;50.930;18.276;2023-03-02T13:59:24;83.67;68.67;44.67
78316;PMS7003;67572;50.930;18.276;2023-03-02T14:02:30;54.00;44.50;28.00
78316;PMS7003;67572;50.930;18.276;2023-03-02T14:05:36;48.67;44.67;28.67
78316;PMS7003;67572;50.930;18.276;2023-03-02T14:08:41;84.67;69.00;42.00
78316;PMS7003;67572;50.930;18.276;2023-03-02T14:11:46;50.33;45.67;31.00
78316;PMS7003;67572;50.930;18.276;2023-03-02T14:14:55;69.67;57.00;35.33
78316;PMS7003;67572;50.930;18.276;2023-03-02T14:18:07;67.67;54.33;33.00
78316;PMS7003;67572;50.930;18.276;2023-03-02T14:21:24;54.00;46.67;30.33
78316;PMS7003;67572;50.930;18.276;2023-03-02T14:24:30;68.00;53.33;33.67
78316;PMS7003;67572;50.930;18.276;2023-03-02T14:27:35;58.67;45.00;30.00
78316;PMS7003;67572;50.930;18.276;2023-03-02T14:30:43;58.67;52.33;33.00
78316;PMS7003;67572;50.930;18.276;2023-03-02T14:33:48;58.67;46.67;28.67
78316;PMS7003;67572;50.930;18.276;2023-03-02T14:36:55;49.67;43.67;25.00
78316;PMS7003;67572;50.930;18.276;2023-03-02T14:40:02;66.25;54.00;33.50
78316;PMS7003;67572;50.930;18.276;2023-03-02T14:43:09;66.33;54.33;35.33
78316;PMS7003;67572;50.930;18.276;2023-03-02T14:46:17;80.00;61.50;36.50
78316;PMS7003;67572;50.930;18.276;2023-03-02T14:49:22;66.75;53.00;35.50
78316;PMS7003;67572;50.930;18.276;2023-03-02T14:52:29;59.33;53.33;34.00
78316;PMS7003;67572;50.930;18.276;2023-03-02T14:55:37;59.33;47.33;31.00
78316;PMS7003;67572;50.930;18.276;2023-03-02T14:58:43;90.00;66.00;43.00
78316;PMS7003;67572;50.930;18.276;2023-03-02T15:01:50;70.33;58.33;38.67
78316;PMS7003;67572;50.930;18.276;2023-03-02T15:04:55;77.67;59.67;38.67
78316;PMS7003;67572;50.930;18.276;2023-03-02T15:08:00;69.67;58.33;38.67
78316;PMS7003;67572;50.930;18.276;2023-03-02T15:11:04;55.00;48.00;30.00
78316;PMS7003;67572;50.930;18.276;2023-03-02T15:14:10;74.33;58.00;36.00
78316;PMS7003;67572;50.930;18.276;2023-03-02T15:17:16;42.00;42.00;21.00
78316;PMS7003;67572;50.930;18.276;2023-03-02T15:20:21;78.00;62.33;39.00
78316;PMS7003;67572;50.930;18.276;2023-03-02T15:23:26;71.00;54.00;33.00
78316;PMS7003;67572;50.930;18.276;2023-03-02T15:26:31;61.50;47.75;30.25
78316;PMS7003;67572;50.930;18.276;2023-03-02T15:29:37;60.33;49.00;33.00
78316;PMS7003;67572;50.930;18.276;2023-03-02T15:32:43;55.00;48.50;32.50
78316;PMS7003;67572;50.930;18.276;2023-03-02T15:35:49;55.25;45.00;30.50
78316;PMS7003;67572;50.930;18.276;2023-03-02T15:38:58;44.67;43.33;26.33
78316;PMS7003;67572;50.930;18.276;2023-03-02T15:42:03;65.67;48.33;28.00
78316;PMS7003;67572;50.930;18.276;2023-03-02T15:45:09;52.33;48.00;33.00
78316;PMS7003;67572;50.930;18.276;2023-03-02T15:48:16;50.67;45.00;31.67
78316;PMS7003;67572;50.930;18.276;2023-03-02T15:51:22;62.00;51.67;34.00
78316;PMS7003;67572;50.930;18.276;2023-03-02T15:54:27;54.00;49.00;31.00
78316;PMS7003;67572;50.930;18.276;2023-03-02T15:57:35;33.33;28.00;24.33
78316;PMS7003;67572;50.930;18.276;2023-03-02T16:00:41;63.25;49.25;33.75
78316;PMS7003;67572;50.930;18.276;2023-03-02T16:03:47;54.00;42.67;27.33
78316;PMS7003;67572;50.930;18.276;2023-03-02T16:06:54;54.00;45.00;28.00
78316;PMS7003;67572;50.930;18.276;2023-03-02T16:09:59;44.33;36.33;23.33
78316;PMS7003;67572;50.930;18.276;2023-03-02T16:13:04;35.33;31.67;24.00
78316;PMS7003;67572;50.930;18.276;2023-03-02T16:16:10;52.33;44.67;28.33
78316;PMS7003;67572;50.930;18.276;2023-03-02T16:19:17;44.67;42.33;24.33
78316;PMS7003;67572;50.930;18.276;2023-03-02T16:22:23;41.33;38.33;24.00
78316;PMS7003;67572;50.930;18.276;2023-03-02T16:25:29;35.67;34.67;21.67
78316;PMS7003;67572;50.930;18.276;2023-03-02T16:28:35;39.67;34.00;16.67
78316;PMS7003;67572;50.930;18.276;2023-03-02T16:31:42;46.00;40.67;29.33
78316;PMS7003;67572;50.930;18.276;2023-03-02T16:34:52;46.00;40.33;24.67
78316;PMS7003;67572;50.930;18.276;2023-03-02T16:37:57;53.67;45.33;27.33
78316;PMS7003;67572;50.930;18.276;2023-03-02T16:41:03;40.67;38.33;27.67
78316;PMS7003;67572;50.930;18.276;2023-03-02T16:44:09;45.33;37.00;22.33
78316;PMS7003;67572;50.930;18.276;2023-03-02T16:47:19;48.33;39.67;27.33
78316;PMS7003;67572;50.930;18.276;2023-03-02T16:50:26;42.67;42.33;28.67
78316;PMS7003;67572;50.930;18.276;2023-03-02T16:53:31;41.00;37.67;25.33
78316;PMS7003;67572;50.930;18.276;2023-03-02T16:56:37;48.67;44.00;28.00
78316;PMS7003;67572;50.930;18.276;2023-03-02T16:59:44;43.67;39.33;29.33
78316;PMS7003;67572;50.930;18.276;2023-03-02T17:02:49;39.67;39.00;26.33
78316;PMS7003;67572;50.930;18.276;2023-03-02T17:05:58;41.67;37.00;27.00
78316;PMS7003;67572;50.930;18.276;2023-03-02T17:09:03;26.67;25.33;15.33
78316;PMS7003;67572;50.930;18.276;2023-03-02T17:12:08;36.67;33.33;23.33
78316;PMS7003;67572;50.930;18.276;2023-03-02T17:15:12;35.33;31.67;21.67
78316;PMS7003;67572;50.930;18.276;2023-03-02T17:18:18;31.67;30.67;22.00
78316;PMS7003;67572;50.930;18.276;2023-03-02T17:21:25;32.00;26.00;19.00
78316;PMS7003;67572;50.930;18.276;2023-03-02T17:24:29;38.33;31.00;21.33
78316;PMS7003;67572;50.930;18.276;2023-03-02T17:27:34;35.00;32.33;22.00